createdAt,value
2018-11-12T00:00:38.097Z,100796.13
2018-11-12T00:01:43.510Z,100797.92
2018-11-12T00:02:51.084Z,100795.42
2018-11-12T00:03:56.545Z,100795.42
2018-11-12T00:05:02.031Z,100799.71
2018-11-12T00:06:07.706Z,100797.66
2018-11-12T00:07:13.273Z,100798.84
2018-11-12T00:08:18.804Z,100802.66
2018-11-12T00:09:24.329Z,100802.30
2018-11-12T00:10:29.822Z,100812.66
2018-11-12T00:11:35.310Z,100807.52
2018-11-12T00:12:41.059Z,100811.77
2018-11-12T00:13:46.601Z,100812.60
2018-11-12T00:14:52.078Z,100801.38
2018-11-12T00:15:57.722Z,100807.39
2018-11-12T00:17:03.374Z,100812.01
2018-11-12T00:18:08.837Z,100811.20
2018-11-12T00:19:14.661Z,100814.95
2018-11-12T00:20:20.169Z,100812.36
2018-11-12T00:21:25.690Z,100811.89
2018-11-12T00:22:31.181Z,100811.05
2018-11-12T00:23:36.635Z,100793.89
2018-11-12T00:24:42.107Z,100798.09
2018-11-12T00:25:47.567Z,100793.45
2018-11-12T00:26:53.052Z,100792.67
2018-11-12T00:27:58.480Z,100796.48
2018-11-12T00:29:03.985Z,100796.97
2018-11-12T00:30:12.557Z,100802.89
2018-11-12T00:31:18.014Z,100802.51
2018-11-12T00:32:23.502Z,100799.47
2018-11-12T00:33:29.011Z,100803.37
2018-11-12T00:34:34.461Z,100802.92
2018-11-12T00:35:39.962Z,100809.77
2018-11-12T00:36:45.424Z,100805.06
2018-11-12T00:37:50.867Z,100803.31
2018-11-12T00:38:56.352Z,100799.47
2018-11-12T00:40:01.789Z,100812.87
2018-11-12T00:41:07.258Z,100803.94
2018-11-12T00:42:12.741Z,100816.33
2018-11-12T00:43:18.212Z,100812.01
2018-11-12T00:44:23.679Z,100820.17
2018-11-12T00:45:29.169Z,100820.08
2018-11-12T00:46:34.649Z,100823.92
2018-11-12T00:47:40.162Z,100823.03
2018-11-12T00:48:45.581Z,100826.93
2018-11-12T00:49:51.080Z,100830.30
2018-11-12T00:50:56.669Z,100825.47
2018-11-12T00:52:02.175Z,100822.43
2018-11-12T00:53:07.800Z,100824.19
2018-11-12T00:54:13.278Z,100820.28
2018-11-12T00:55:18.754Z,100817.66
2018-11-12T00:56:24.264Z,100820.61
2018-11-12T00:57:29.908Z,100819.78
2018-11-12T00:58:35.378Z,100822.69
2018-11-12T00:59:40.864Z,100830.32
2018-11-12T01:00:46.322Z,100827.34
2018-11-12T01:01:51.777Z,100820.10
2018-11-12T01:02:57.393Z,100821.35
2018-11-12T01:04:02.936Z,100824.88
2018-11-12T01:05:08.761Z,100826.51
2018-11-12T01:06:14.225Z,100828.71
2018-11-12T01:07:19.669Z,100830.37
2018-11-12T01:08:25.176Z,100830.89
2018-11-12T01:09:30.633Z,100833.84
2018-11-12T01:10:36.073Z,100832.64
2018-11-12T01:11:41.790Z,100844.17
2018-11-12T01:12:47.579Z,100843.02
2018-11-12T01:13:53.041Z,100844.59
2018-11-12T01:14:58.469Z,100841.91
2018-11-12T01:16:04.087Z,100839.77
2018-11-12T01:17:09.557Z,100845.25
2018-11-12T01:18:15.084Z,100846.55
2018-11-12T01:19:20.568Z,100846.91
2018-11-12T01:20:26.019Z,100847.72
2018-11-12T01:21:31.532Z,100840.32
2018-11-12T01:22:36.994Z,100837.25
2018-11-12T01:23:42.507Z,100832.92
2018-11-12T01:24:47.949Z,100826.55
2018-11-12T01:25:53.389Z,100827.77
2018-11-12T01:26:58.983Z,100829.87
2018-11-12T01:28:04.590Z,100832.06
2018-11-12T01:29:10.057Z,100832.89
2018-11-12T01:30:16.670Z,100833.82
2018-11-12T01:31:22.138Z,100833.37
2018-11-12T01:32:27.660Z,100836.80
2018-11-12T01:33:35.063Z,100836.89
2018-11-12T01:34:40.535Z,100840.67
2018-11-12T01:35:45.949Z,100834.27
2018-11-12T01:36:51.610Z,100827.41
2018-11-12T01:37:57.090Z,100831.61
2018-11-12T01:39:02.618Z,100836.80
2018-11-12T01:40:10.108Z,100829.14
2018-11-12T01:41:15.534Z,100830.52
2018-11-12T01:42:20.991Z,100822.73
2018-11-12T01:43:26.436Z,100831.20
2018-11-12T01:44:31.934Z,100827.83
2018-11-12T01:45:37.345Z,100824.41
2018-11-12T01:46:42.830Z,100825.39
2018-11-12T01:47:49.481Z,100835.16
2018-11-12T01:48:54.964Z,100838.08
2018-11-12T01:50:00.387Z,100834.66
2018-11-12T01:51:06.599Z,100834.69
2018-11-12T01:52:12.089Z,100831.64
2018-11-12T01:53:17.542Z,100819.59
2018-11-12T01:54:23.046Z,100823.89
2018-11-12T01:55:28.525Z,100822.96
2018-11-12T01:56:34.081Z,100834.02
2018-11-12T01:57:39.537Z,100837.45
2018-11-12T01:58:44.973Z,100836.16
2018-11-12T01:59:50.619Z,100841.70
2018-11-12T02:00:56.103Z,100836.09
2018-11-12T02:02:01.578Z,100835.72
2018-11-12T02:03:07.049Z,100832.41
2018-11-12T02:04:12.560Z,100828.95
2018-11-12T02:05:18.605Z,100837.06
2018-11-12T02:06:24.066Z,100838.34
2018-11-12T02:07:29.519Z,100850.30
2018-11-12T02:08:35.013Z,100848.30
2018-11-12T02:09:40.441Z,100851.34
2018-11-12T02:10:45.940Z,100853.34
2018-11-12T02:11:51.424Z,100855.80
2018-11-12T02:12:56.947Z,100854.01
2018-11-12T02:14:02.517Z,100854.43
2018-11-12T02:15:11.716Z,100849.33
2018-11-12T02:16:17.205Z,100850.64
2018-11-12T02:17:22.703Z,100852.83
2018-11-12T02:18:28.123Z,100854.45
2018-11-12T02:19:33.729Z,100858.27
2018-11-12T02:20:39.211Z,100856.51
2018-11-12T02:21:44.658Z,100856.86
2018-11-12T02:22:50.690Z,100849.66
2018-11-12T02:23:56.046Z,100850.20
2018-11-12T02:25:01.569Z,100857.86
2018-11-12T02:26:07.329Z,100859.17
2018-11-12T02:27:12.794Z,100858.30
2018-11-12T02:28:18.296Z,100857.98
2018-11-12T02:29:23.857Z,100851.89
2018-11-12T02:30:34.625Z,100847.12
2018-11-12T02:31:39.991Z,100847.54
2018-11-12T02:32:45.543Z,100838.56
2018-11-12T02:33:51.025Z,100841.06
2018-11-12T02:34:56.501Z,100835.94
2018-11-12T02:36:01.937Z,100833.02
2018-11-12T02:37:07.426Z,100830.05
2018-11-12T02:38:13.146Z,100835.20
2018-11-12T02:39:18.622Z,100834.40
2018-11-12T02:40:24.122Z,100836.55
2018-11-12T02:41:30.489Z,100839.56
2018-11-12T02:42:35.971Z,100838.76
2018-11-12T02:43:41.461Z,100837.06
2018-11-12T02:44:46.982Z,100838.05
2018-11-12T02:45:52.465Z,100836.26
2018-11-12T02:46:57.946Z,100831.97
2018-11-12T02:48:03.411Z,100837.51
2018-11-12T02:49:08.881Z,100836.28
2018-11-12T02:50:16.702Z,100833.31
2018-11-12T02:51:22.178Z,100832.48
2018-11-12T02:52:27.902Z,100836.32
2018-11-12T02:53:33.467Z,100835.13
2018-11-12T02:54:38.913Z,100838.08
2018-11-12T02:55:44.437Z,100838.08
2018-11-12T02:56:49.908Z,100831.94
2018-11-12T02:57:55.499Z,100832.45
2018-11-12T02:59:01.011Z,100829.87
2018-11-12T03:00:12.377Z,100822.96
2018-11-12T03:01:22.209Z,100822.58
2018-11-12T03:02:27.705Z,100825.91
2018-11-12T03:03:33.124Z,100834.47
2018-11-12T03:04:38.567Z,100837.92
2018-11-12T03:05:44.058Z,100832.45
2018-11-12T03:06:49.509Z,100825.94
2018-11-12T03:07:54.983Z,100815.66
2018-11-12T03:09:00.550Z,100808.86
2018-11-12T03:10:10.434Z,100813.89
2018-11-12T03:11:15.897Z,100808.03
2018-11-12T03:12:21.414Z,100809.66
2018-11-12T03:13:26.865Z,100813.92
2018-11-12T03:14:32.309Z,100813.48
2018-11-12T03:15:37.757Z,100816.04
2018-11-12T03:16:43.193Z,100818.61
2018-11-12T03:17:49.295Z,100815.66
2018-11-12T03:18:54.713Z,100818.16
2018-11-12T03:20:00.176Z,100814.28
2018-11-12T03:21:05.972Z,100821.97
2018-11-12T03:22:11.563Z,100820.34
2018-11-12T03:23:17.044Z,100818.61
2018-11-12T03:24:22.590Z,100823.25
2018-11-12T03:25:28.079Z,100824.18
2018-11-12T03:26:33.582Z,100819.05
2018-11-12T03:27:39.212Z,100812.58
2018-11-12T03:28:44.674Z,100814.24
2018-11-12T03:29:50.155Z,100808.25
2018-11-12T03:30:55.571Z,100817.61
2018-11-12T03:32:01.002Z,100820.20
2018-11-12T03:33:07.270Z,100820.27
2018-11-12T03:34:12.693Z,100820.69
2018-11-12T03:35:18.198Z,100822.00
2018-11-12T03:36:23.688Z,100822.83
2018-11-12T03:37:29.185Z,100827.52
2018-11-12T03:38:34.595Z,100833.15
2018-11-12T03:39:40.150Z,100837.51
2018-11-12T03:40:45.633Z,100831.52
2018-11-12T03:41:51.103Z,100836.26
2018-11-12T03:42:56.590Z,100834.98
2018-11-12T03:44:02.073Z,100836.28
2018-11-12T03:45:12.212Z,100833.66
2018-11-12T03:46:17.733Z,100833.98
2018-11-12T03:47:23.178Z,100838.73
2018-11-12T03:48:28.702Z,100840.81
2018-11-12T03:49:34.158Z,100848.59
2018-11-12T03:50:39.648Z,100855.80
2018-11-12T03:51:45.089Z,100870.80
2018-11-12T03:52:50.569Z,100871.34
2018-11-12T03:53:56.060Z,100873.06
2018-11-12T03:55:01.560Z,100873.12
2018-11-12T03:56:07.994Z,100880.34
2018-11-12T03:57:13.725Z,100882.09
2018-11-12T03:58:19.157Z,100882.55
2018-11-12T03:59:24.648Z,100879.44
2018-11-12T04:00:30.227Z,100882.78
2018-11-12T04:01:40.822Z,100885.34
2018-11-12T04:02:46.311Z,100894.22
2018-11-12T04:03:51.753Z,100893.87
2018-11-12T04:04:57.272Z,100894.25
2018-11-12T04:06:02.774Z,100896.52
2018-11-12T04:07:08.221Z,100895.17
2018-11-12T04:08:13.688Z,100892.11
2018-11-12T04:09:19.258Z,100894.16
2018-11-12T04:10:24.735Z,100899.31
2018-11-12T04:11:30.160Z,100903.61
2018-11-12T04:12:35.597Z,100898.00
2018-11-12T04:13:41.166Z,100896.30
2018-11-12T04:14:46.592Z,100894.52
2018-11-12T04:15:52.010Z,100897.47
2018-11-12T04:16:57.568Z,100895.77
2018-11-12T04:18:03.055Z,100898.30
2018-11-12T04:19:08.665Z,100894.94
2018-11-12T04:20:15.422Z,100894.90
2018-11-12T04:21:20.935Z,100892.72
2018-11-12T04:22:26.390Z,100898.66
2018-11-12T04:23:31.904Z,100898.30
2018-11-12T04:24:37.399Z,100898.87
2018-11-12T04:25:42.886Z,100902.23
2018-11-12T04:26:48.397Z,100904.00
2018-11-12T04:27:53.902Z,100901.02
2018-11-12T04:28:59.454Z,100906.69
2018-11-12T04:30:06.905Z,100909.72
2018-11-12T04:31:12.674Z,100913.27
2018-11-12T04:32:18.128Z,100911.87
2018-11-12T04:33:23.558Z,100908.34
2018-11-12T04:34:29.023Z,100903.19
2018-11-12T04:35:34.726Z,100894.99
2018-11-12T04:36:40.404Z,100891.92
2018-11-12T04:37:45.854Z,100895.38
2018-11-12T04:38:51.357Z,100893.94
2018-11-12T04:39:56.817Z,100885.42
2018-11-12T04:41:02.341Z,100889.65
2018-11-12T04:42:07.850Z,100887.53
2018-11-12T04:43:13.306Z,100889.61
2018-11-12T04:44:18.805Z,100890.89
2018-11-12T04:45:25.080Z,100888.72
2018-11-12T04:46:30.528Z,100884.36
2018-11-12T04:47:36.106Z,100877.47
2018-11-12T04:48:41.621Z,100875.80
2018-11-12T04:49:47.050Z,100876.61
2018-11-12T04:50:52.473Z,100875.33
2018-11-12T04:51:57.936Z,100877.02
2018-11-12T04:53:03.423Z,100871.03
2018-11-12T04:54:08.857Z,100881.67
2018-11-12T04:55:15.654Z,100874.45
2018-11-12T04:56:21.092Z,100878.72
2018-11-12T04:57:26.561Z,100877.83
2018-11-12T04:58:32.142Z,100876.48
2018-11-12T04:59:37.639Z,100870.89
2018-11-12T05:00:43.206Z,100871.31
2018-11-12T05:01:48.717Z,100871.80
2018-11-12T05:02:54.171Z,100871.80
2018-11-12T05:03:59.641Z,100878.23
2018-11-12T05:05:05.561Z,100875.23
2018-11-12T05:06:10.999Z,100874.81
2018-11-12T05:07:16.528Z,100875.29
2018-11-12T05:08:22.020Z,100872.34
2018-11-12T05:09:27.512Z,100873.59
2018-11-12T05:10:32.946Z,100874.91
2018-11-12T05:11:38.405Z,100875.73
2018-11-12T05:12:44.542Z,100869.74
2018-11-12T05:13:49.953Z,100875.23
2018-11-12T05:14:55.582Z,100875.26
2018-11-12T05:16:01.048Z,100865.48
2018-11-12T05:17:06.592Z,100865.45
2018-11-12T05:18:12.109Z,100861.98
2018-11-12T05:19:17.558Z,100863.33
2018-11-12T05:20:25.435Z,100864.62
2018-11-12T05:21:30.878Z,100859.11
2018-11-12T05:22:36.375Z,100856.51
2018-11-12T05:23:41.879Z,100859.52
2018-11-12T05:24:47.325Z,100848.81
2018-11-12T05:25:52.857Z,100846.73
2018-11-12T05:26:58.814Z,100837.02
2018-11-12T05:28:04.414Z,100834.52
2018-11-12T05:29:09.897Z,100839.75
2018-11-12T05:30:18.993Z,100830.84
2018-11-12T05:31:24.502Z,100833.02
2018-11-12T05:32:30.002Z,100834.27
2018-11-12T05:33:35.492Z,100834.20
2018-11-12T05:34:40.915Z,100832.48
2018-11-12T05:35:46.487Z,100829.08
2018-11-12T05:36:51.906Z,100831.64
2018-11-12T05:37:57.473Z,100829.53
2018-11-12T05:39:03.121Z,100829.50
2018-11-12T05:40:13.057Z,100830.36
2018-11-12T05:41:18.623Z,100832.95
2018-11-12T05:42:24.112Z,100836.42
2018-11-12T05:43:29.611Z,100841.55
2018-11-12T05:44:35.040Z,100835.14
2018-11-12T05:45:40.462Z,100831.30
2018-11-12T05:46:45.973Z,100836.84
2018-11-12T05:47:51.484Z,100838.15
2018-11-12T05:48:56.913Z,100840.65
2018-11-12T05:50:02.431Z,100838.09
2018-11-12T05:51:07.854Z,100835.04
2018-11-12T05:52:13.453Z,100836.70
2018-11-12T05:53:18.958Z,100836.29
2018-11-12T05:54:24.486Z,100830.01
2018-11-12T05:55:30.817Z,100835.45
2018-11-12T05:56:36.258Z,100832.86
2018-11-12T05:57:42.601Z,100833.76
2018-11-12T05:58:48.070Z,100832.45
2018-11-12T05:59:53.513Z,100837.13
2018-11-12T06:00:59.023Z,100845.33
2018-11-12T06:02:04.693Z,100837.60
2018-11-12T06:03:10.215Z,100844.88
2018-11-12T06:04:15.733Z,100842.73
2018-11-12T06:05:21.298Z,100846.16
2018-11-12T06:06:26.805Z,100840.97
2018-11-12T06:07:32.619Z,100840.52
2018-11-12T06:08:38.130Z,100841.83
2018-11-12T06:09:43.625Z,100828.22
2018-11-12T06:10:49.145Z,100827.77
2018-11-12T06:11:54.580Z,100837.13
2018-11-12T06:13:00.033Z,100840.16
2018-11-12T06:14:05.737Z,100841.41
2018-11-12T06:15:12.043Z,100842.34
2018-11-12T06:16:17.513Z,100842.25
2018-11-12T06:17:23.126Z,100845.23
2018-11-12T06:18:28.581Z,100851.32
2018-11-12T06:19:34.293Z,100848.72
2018-11-12T06:20:39.821Z,100849.08
2018-11-12T06:21:45.275Z,100841.48
2018-11-12T06:22:50.854Z,100844.02
2018-11-12T06:23:56.215Z,100847.80
2018-11-12T06:25:01.659Z,100839.75
2018-11-12T06:26:07.297Z,100842.66
2018-11-12T06:27:12.845Z,100849.88
2018-11-12T06:28:18.360Z,100845.16
2018-11-12T06:29:23.814Z,100840.42
2018-11-12T06:30:37.176Z,100841.67
2018-11-12T06:31:42.640Z,100837.47
2018-11-12T06:32:48.191Z,100837.86
2018-11-12T06:33:53.661Z,100832.31
2018-11-12T06:34:59.100Z,100834.43
2018-11-12T06:36:04.598Z,100830.13
2018-11-12T06:37:10.202Z,100830.52
2018-11-12T06:38:15.709Z,100830.09
2018-11-12T06:39:21.345Z,100828.37
2018-11-12T06:40:27.667Z,100826.67
2018-11-12T06:41:33.159Z,100831.31
2018-11-12T06:42:39.266Z,100833.46
2018-11-12T06:43:44.615Z,100828.37
2018-11-12T06:44:50.389Z,100836.51
2018-11-12T06:45:55.894Z,100840.36
2018-11-12T06:47:01.377Z,100836.51
2018-11-12T06:48:07.152Z,100839.08
2018-11-12T06:49:12.693Z,100842.47
2018-11-12T06:50:25.906Z,100845.03
2018-11-12T06:51:31.467Z,100855.29
2018-11-12T06:52:36.970Z,100857.09
2018-11-12T06:53:42.512Z,100851.13
2018-11-12T06:54:47.992Z,100855.29
2018-11-12T06:55:53.537Z,100860.06
2018-11-12T06:56:58.975Z,100868.23
2018-11-12T06:58:04.457Z,100869.94
2018-11-12T06:59:09.939Z,100865.23
2018-11-12T07:00:22.123Z,100872.15
2018-11-12T07:01:27.611Z,100876.48
2018-11-12T07:02:37.005Z,100874.42
2018-11-12T07:03:42.474Z,100877.37
2018-11-12T07:04:47.978Z,100881.98
2018-11-12T07:05:53.505Z,100885.42
2018-11-12T07:06:59.189Z,100881.09
2018-11-12T07:08:04.589Z,100883.23
2018-11-12T07:09:12.456Z,100884.10
2018-11-12T07:10:19.345Z,100890.89
2018-11-12T07:11:24.834Z,100883.14
2018-11-12T07:12:30.306Z,100880.96
2018-11-12T07:13:35.844Z,100884.27
2018-11-12T07:14:41.297Z,100886.92
2018-11-12T07:15:46.853Z,100887.59
2018-11-12T07:16:52.340Z,100885.03
2018-11-12T07:17:58.102Z,100885.00
2018-11-12T07:19:03.820Z,100888.33
2018-11-12T07:20:11.726Z,100887.08
2018-11-12T07:21:17.431Z,100894.39
2018-11-12T07:22:23.384Z,100888.05
2018-11-12T07:23:28.937Z,100895.28
2018-11-12T07:24:34.449Z,100893.49
2018-11-12T07:25:39.920Z,100899.91
2018-11-12T07:26:45.457Z,100898.23
2018-11-12T07:27:50.896Z,100899.94
2018-11-12T07:28:56.521Z,100894.39
2018-11-12T07:30:02.003Z,100892.66
2018-11-12T07:31:07.596Z,100893.49
2018-11-12T07:32:13.026Z,100889.65
2018-11-12T07:33:18.483Z,100888.66
2018-11-12T07:34:24.004Z,100895.55
2018-11-12T07:35:29.490Z,100891.64
2018-11-12T07:36:34.998Z,100888.20
2018-11-12T07:37:40.852Z,100885.26
2018-11-12T07:38:46.624Z,100890.61
2018-11-12T07:39:52.130Z,100888.02
2018-11-12T07:40:57.625Z,100886.31
2018-11-12T07:42:03.085Z,100887.25
2018-11-12T07:43:08.525Z,100887.25
2018-11-12T07:44:13.974Z,100886.41
2018-11-12T07:45:20.721Z,100886.80
2018-11-12T07:46:26.157Z,100896.31
2018-11-12T07:47:31.654Z,100897.09
2018-11-12T07:48:37.188Z,100890.70
2018-11-12T07:49:42.665Z,100892.59
2018-11-12T07:50:48.361Z,100891.70
2018-11-12T07:51:53.793Z,100898.37
2018-11-12T07:52:59.228Z,100891.09
2018-11-12T07:54:05.074Z,100889.88
2018-11-12T07:55:13.817Z,100893.66
2018-11-12T07:56:19.312Z,100891.55
2018-11-12T07:57:24.740Z,100890.61
2018-11-12T07:58:30.227Z,100894.81
2018-11-12T07:59:35.763Z,100888.81
2018-11-12T08:00:41.305Z,100888.81
2018-11-12T08:01:46.767Z,100892.59
2018-11-12T08:02:55.687Z,100894.65
2018-11-12T08:04:01.113Z,100895.09
2018-11-12T08:05:07.177Z,100890.38
2018-11-12T08:06:12.702Z,100892.47
2018-11-12T08:07:18.134Z,100895.86
2018-11-12T08:08:23.713Z,100890.29
2018-11-12T08:09:29.222Z,100884.29
2018-11-12T08:10:34.630Z,100878.84
2018-11-12T08:11:40.541Z,100878.33
2018-11-12T08:12:46.510Z,100876.53
2018-11-12T08:13:52.005Z,100873.09
2018-11-12T08:14:57.505Z,100872.23
2018-11-12T08:16:02.965Z,100878.92
2018-11-12T08:17:08.523Z,100872.61
2018-11-12T08:18:14.122Z,100876.08
2018-11-12T08:19:19.636Z,100873.12
2018-11-12T08:20:25.953Z,100873.52
2018-11-12T08:21:31.678Z,100875.25
2018-11-12T08:22:37.134Z,100876.47
2018-11-12T08:23:42.595Z,100877.81
2018-11-12T08:24:48.189Z,100869.67
2018-11-12T08:25:53.578Z,100869.03
2018-11-12T08:26:59.529Z,100872.36
2018-11-12T08:28:05.054Z,100869.80
2018-11-12T08:29:10.475Z,100872.33
2018-11-12T08:30:22.815Z,100860.79
2018-11-12T08:31:28.469Z,100858.67
2018-11-12T08:32:33.910Z,100862.45
2018-11-12T08:33:39.399Z,100855.14
2018-11-12T08:34:44.840Z,100855.94
2018-11-12T08:35:50.338Z,100858.51
2018-11-12T08:36:55.887Z,100859.02
2018-11-12T08:38:01.396Z,100861.55
2018-11-12T08:39:08.399Z,100857.70
2018-11-12T08:40:16.186Z,100856.88
2018-11-12T08:41:21.645Z,100859.09
2018-11-12T08:42:27.405Z,100862.11
2018-11-12T08:43:32.829Z,100868.06
2018-11-12T08:44:38.339Z,100856.49
2018-11-12T08:45:43.805Z,100860.66
2018-11-12T08:46:49.266Z,100855.94
2018-11-12T08:47:55.597Z,100855.98
2018-11-12T08:49:01.111Z,100859.30
2018-11-12T08:50:10.898Z,100855.45
2018-11-12T08:51:16.423Z,100859.66
2018-11-12T08:52:21.930Z,100857.13
2018-11-12T08:53:27.488Z,100856.64
2018-11-12T08:54:32.979Z,100853.27
2018-11-12T08:55:38.465Z,100852.27
2018-11-12T08:56:43.864Z,100856.50
2018-11-12T08:57:50.927Z,100852.69
2018-11-12T08:58:56.470Z,100850.12
2018-11-12T09:00:01.948Z,100847.52
2018-11-12T09:01:07.683Z,100849.15
2018-11-12T09:02:13.223Z,100852.61
2018-11-12T09:03:18.764Z,100860.21
2018-11-12T09:04:24.341Z,100862.36
2018-11-12T09:05:30.898Z,100858.06
2018-11-12T09:06:37.150Z,100855.95
2018-11-12T09:07:43.821Z,100864.92
2018-11-12T09:08:49.295Z,100867.94
2018-11-12T09:09:54.741Z,100871.03
2018-11-12T09:11:00.163Z,100878.86
2018-11-12T09:12:05.783Z,100878.83
2018-11-12T09:13:11.281Z,100877.51
2018-11-12T09:14:16.717Z,100872.76
2018-11-12T09:15:22.386Z,100858.16
2018-11-12T09:16:27.832Z,100859.45
2018-11-12T09:17:33.329Z,100866.73
2018-11-12T09:18:38.760Z,100860.70
2018-11-12T09:19:44.257Z,100852.09
2018-11-12T09:20:49.782Z,100844.33
2018-11-12T09:21:55.248Z,100843.19
2018-11-12T09:23:00.713Z,100846.20
2018-11-12T09:24:06.784Z,100848.70
2018-11-12T09:25:15.697Z,100851.75
2018-11-12T09:26:21.216Z,100851.75
2018-11-12T09:27:27.001Z,100847.86
2018-11-12T09:28:32.482Z,100842.70
2018-11-12T09:29:38.013Z,100838.44
2018-11-12T09:30:44.858Z,100839.68
2018-11-12T09:31:49.227Z,100844.81
2018-11-12T09:32:54.746Z,100845.20
2018-11-12T09:34:00.274Z,100846.83
2018-11-12T09:35:06.818Z,100850.67
2018-11-12T09:36:12.417Z,100841.73
2018-11-12T09:37:18.191Z,100846.79
2018-11-12T09:38:23.667Z,100842.07
2018-11-12T09:39:29.099Z,100846.23
2018-11-12T09:40:37.921Z,100848.00
2018-11-12T09:41:43.457Z,100854.77
2018-11-12T09:42:48.937Z,100859.82
2018-11-12T09:43:54.622Z,100850.35
2018-11-12T09:45:00.129Z,100840.88
2018-11-12T09:46:06.439Z,100843.72
2018-11-12T09:47:11.972Z,100835.64
2018-11-12T09:48:17.551Z,100850.52
2018-11-12T09:49:22.957Z,100845.72
2018-11-12T09:50:28.978Z,100847.02
2018-11-12T09:51:34.456Z,100838.02
2018-11-12T09:52:40.393Z,100835.34
2018-11-12T09:53:45.901Z,100835.77
2018-11-12T09:54:51.351Z,100833.61
2018-11-12T09:55:56.738Z,100840.37
2018-11-12T09:57:02.182Z,100838.25
2018-11-12T09:58:08.536Z,100841.23
2018-11-12T09:59:13.945Z,100843.23
2018-11-12T10:00:20.306Z,100846.29
2018-11-12T10:01:26.300Z,100839.00
2018-11-12T10:02:31.763Z,100839.61
2018-11-12T10:03:38.232Z,100837.09
2018-11-12T10:04:43.713Z,100837.53
2018-11-12T10:05:49.051Z,100836.81
2018-11-12T10:06:54.960Z,100841.12
2018-11-12T10:08:05.192Z,100840.81
2018-11-12T10:09:16.024Z,100844.28
2018-11-12T10:10:43.007Z,100836.92
2018-11-12T10:11:48.583Z,100841.98
2018-11-12T10:12:53.405Z,100841.27
2018-11-12T10:14:00.078Z,100843.91
2018-11-12T10:15:05.287Z,100844.70
2018-11-12T10:16:11.500Z,100848.55
2018-11-12T10:17:16.763Z,100849.80
2018-11-12T10:18:19.226Z,100845.19
2018-11-12T10:19:24.736Z,100844.70
2018-11-12T10:20:30.379Z,100851.91
2018-11-12T10:21:35.913Z,100847.98
2018-11-12T10:22:41.645Z,100847.88
2018-11-12T10:23:47.049Z,100842.36
2018-11-12T10:24:52.493Z,100849.12
2018-11-12T10:25:58.073Z,100851.17
2018-11-12T10:27:03.573Z,100849.39
2018-11-12T10:28:09.077Z,100851.62
2018-11-12T10:29:14.509Z,100849.12
2018-11-12T10:30:20.602Z,100849.47
2018-11-12T10:31:26.232Z,100854.45
2018-11-12T10:32:31.651Z,100849.70
2018-11-12T10:33:37.109Z,100858.00
2018-11-12T10:34:42.506Z,100852.11
2018-11-12T10:35:48.092Z,100856.75
2018-11-12T10:36:53.559Z,100846.75
2018-11-12T10:37:59.061Z,100849.20
2018-11-12T10:39:05.474Z,100841.81
2018-11-12T10:40:17.423Z,100835.23
2018-11-12T10:41:22.915Z,100829.16
2018-11-12T10:42:28.715Z,100829.05
2018-11-12T10:43:34.167Z,100828.47
2018-11-12T10:44:39.605Z,100822.05
2018-11-12T10:45:45.065Z,100828.39
2018-11-12T10:46:50.513Z,100825.03
2018-11-12T10:47:56.038Z,100828.05
2018-11-12T10:49:01.517Z,100829.23
2018-11-12T10:50:07.650Z,100825.38
2018-11-12T10:51:13.157Z,100829.64
2018-11-12T10:52:18.537Z,100824.88
2018-11-12T10:53:24.280Z,100826.54
2018-11-12T10:54:29.900Z,100824.80
2018-11-12T10:55:35.519Z,100826.98
2018-11-12T10:56:40.790Z,100826.54
2018-11-12T10:57:47.060Z,100829.98
2018-11-12T10:58:52.569Z,100827.03
2018-11-12T10:59:58.081Z,100830.39
2018-11-12T11:01:08.926Z,100825.78
2018-11-12T11:02:19.637Z,100824.84
2018-11-12T11:03:30.345Z,100822.31
2018-11-12T11:04:35.826Z,100830.84
2018-11-12T11:05:42.350Z,100831.27
2018-11-12T11:06:47.887Z,100831.27
2018-11-12T11:07:54.153Z,100835.61
2018-11-12T11:08:59.626Z,100840.78
2018-11-12T11:10:05.258Z,100844.11
2018-11-12T11:11:10.766Z,100847.81
2018-11-12T11:12:16.181Z,100847.36
2018-11-12T11:13:21.646Z,100848.64
2018-11-12T11:14:27.135Z,100853.33
2018-11-12T11:15:33.647Z,100864.65
2018-11-12T11:16:39.107Z,100864.80
2018-11-12T11:17:44.606Z,100861.28
2018-11-12T11:18:50.083Z,100856.42
2018-11-12T11:19:55.570Z,100848.19
2018-11-12T11:21:01.105Z,100838.83
2018-11-12T11:22:06.621Z,100835.35
2018-11-12T11:23:12.125Z,100825.91
2018-11-12T11:24:17.629Z,100830.52
2018-11-12T11:25:23.113Z,100827.88
2018-11-12T11:26:28.574Z,100820.51
2018-11-12T11:27:34.039Z,100825.95
2018-11-12T11:28:39.449Z,100823.75
2018-11-12T11:29:44.879Z,100823.22
2018-11-12T11:30:50.526Z,100825.75
2018-11-12T11:31:55.988Z,100831.67
2018-11-12T11:33:01.443Z,100832.20
2018-11-12T11:34:06.991Z,100831.80
2018-11-12T11:35:13.617Z,100831.80
2018-11-12T11:36:19.101Z,100833.95
2018-11-12T11:37:25.368Z,100829.27
2018-11-12T11:38:30.824Z,100829.68
2018-11-12T11:39:36.317Z,100828.84
2018-11-12T11:40:41.842Z,100828.81
2018-11-12T11:41:47.325Z,100830.02
2018-11-12T11:42:52.860Z,100824.05
2018-11-12T11:43:58.361Z,100832.55
2018-11-12T11:45:03.905Z,100830.84
2018-11-12T11:46:09.373Z,100831.75
2018-11-12T11:47:14.964Z,100829.59
2018-11-12T11:48:20.407Z,100832.50
2018-11-12T11:49:25.862Z,100835.87
2018-11-12T11:50:31.412Z,100834.24
2018-11-12T11:51:36.852Z,100836.59
2018-11-12T11:52:42.378Z,100836.29
2018-11-12T11:53:47.842Z,100837.77
2018-11-12T11:54:53.364Z,100836.67
2018-11-12T11:55:58.841Z,100846.80
2018-11-12T11:57:04.347Z,100841.09
2018-11-12T11:58:09.936Z,100836.59
2018-11-12T11:59:15.382Z,100843.28
2018-11-12T12:00:24.202Z,100841.13
2018-11-12T12:01:29.970Z,100844.15
2018-11-12T12:02:35.400Z,100842.41
2018-11-12T12:03:40.985Z,100847.92
2018-11-12T12:04:46.449Z,100845.25
2018-11-12T12:05:51.909Z,100842.60
2018-11-12T12:06:57.390Z,100843.36
2018-11-12T12:08:02.837Z,100837.69
2018-11-12T12:09:09.008Z,100833.34
2018-11-12T12:10:15.389Z,100840.07
2018-11-12T12:11:20.901Z,100843.55
2018-11-12T12:12:26.441Z,100843.17
2018-11-12T12:13:31.998Z,100843.50
2018-11-12T12:14:37.438Z,100846.03
2018-11-12T12:15:42.895Z,100845.62
2018-11-12T12:16:48.330Z,100842.71
2018-11-12T12:17:53.982Z,100846.86
2018-11-12T12:18:59.425Z,100848.60
2018-11-12T12:20:05.873Z,100846.83
2018-11-12T12:21:11.372Z,100848.60
2018-11-12T12:22:16.837Z,100844.22
2018-11-12T12:23:22.333Z,100850.56
2018-11-12T12:24:27.841Z,100842.44
2018-11-12T12:25:33.478Z,100851.44
2018-11-12T12:26:38.889Z,100850.11
2018-11-12T12:27:45.008Z,100850.91
2018-11-12T12:28:50.458Z,100852.56
2018-11-12T12:29:55.901Z,100857.21
2018-11-12T12:31:01.430Z,100853.85